Time;durP1;ratioP1;P1;durP2;ratioP2;P2;SDS_P1;SDS_P2;PMS_P1;PMS_P2;Temp;Humidity;BMP_temperature;BMP_pressure;BME280_temperature;BME280_humidity;BME280_pressure;Samples;Min_cycle;Max_cycle;Signal;HPM_P1;HPM_P2
2023/01/12 00:01:05;;;;;;;;;;;;;;;20.40;54.48;100731.94;5013231;28;4098;-67
2023/01/12 00:03:31;;;;;;;;;;;;;;;20.38;54.67;100734.72;5013860;28;4068;-67
2023/01/12 00:05:59;;;;;;;;;;;;;;;20.37;54.51;100739.00;5012249;28;3930;-67
2023/01/12 00:08:26;;;;;;;;;;;;;;;20.36;54.60;100740.38;5010207;28;5388;-67
2023/01/12 00:10:55;;;;;;;;;;;;;;;20.35;54.64;100747.53;5016296;28;4109;-67
2023/01/12 00:13:21;;;;;;;;;;;;;;;20.35;54.59;100750.41;5009587;28;5442;-66
2023/01/12 00:18:32;;;;;;;;;;;;;;;20.35;54.50;100741.78;4989425;28;3979;-67
2023/01/12 00:20:59;;;;;;;;;;;;;;;20.33;54.52;100727.31;5012600;28;4387;-67
2023/01/12 00:23:25;;;;;;;;;;;;;;;20.33;54.54;100727.31;5005622;28;4150;-67
2023/01/12 00:25:53;;;;;;;;;;;;;;;20.32;54.52;100714.34;5009791;28;4225;-67
2023/01/12 00:28:19;;;;;;;;;;;;;;;20.31;54.44;100724.34;5015131;28;4064;-67
2023/01/12 00:30:45;;;;;;;;;;;;;;;20.31;54.40;100724.34;5016352;28;4250;-67
2023/01/12 00:33:12;;;;;;;;;;;;;;;20.31;54.36;100712.84;5010752;28;4215;-67
2023/01/12 00:35:38;;;;;;;;;;;;;;;20.28;54.30;100714.88;5013980;28;4026;-66
2023/01/12 00:38:05;;;;;;;;;;;;;;;20.29;54.13;100721.38;5018032;28;4343;-67
2023/01/12 00:40:31;;;;;;;;;;;;;;;20.28;54.34;100714.88;5015624;28;4052;-64
2023/01/12 00:45:43;;;;;;;;;;;;;;;20.28;54.37;100708.41;5011757;28;4154;-67
2023/01/12 00:48:11;;;;;;;;;;;;;;;20.26;54.37;100711.91;5009467;28;4432;-68
2023/01/12 00:50:37;;;;;;;;;;;;;;;20.25;54.28;100698.94;5016857;28;4005;-67
2023/01/12 00:53:04;;;;;;;;;;;;;;;20.25;54.31;100703.97;5018961;28;4081;-67
2023/01/12 00:55:30;;;;;;;;;;;;;;;20.25;54.21;100696.06;5015513;28;4092;-67
2023/01/12 00:57:56;;;;;;;;;;;;;;;20.24;54.23;100711.09;5015446;28;5100;-67
2023/01/12 01:00:23;;;;;;;;;;;;;;;20.23;54.27;100701.00;5013772;28;4007;-67
2023/01/12 01:02:49;;;;;;;;;;;;;;;20.24;54.14;100711.09;5018672;28;3938;-66
2023/01/12 01:05:16;;;;;;;;;;;;;;;20.23;54.29;100709.63;5018203;28;4956;-67
2023/01/12 01:07:45;;;;;;;;;;;;;;;20.22;54.33;100711.72;5016675;28;4138;-66
2023/01/12 01:10:11;;;;;;;;;;;;;;;20.22;54.12;100705.97;5011571;28;4056;-66
2023/01/12 01:12:38;;;;;;;;;;;;;;;20.23;54.02;100712.50;5015227;28;4160;-66
2023/01/12 01:15:05;;;;;;;;;;;;;;;20.25;54.12;100716.19;5017261;28;4014;-67
2023/01/12 01:17:31;;;;;;;;;;;;;;;20.27;54.29;100712.66;5004580;28;4321;-66
2023/01/12 01:19:57;;;;;;;;;;;;;;;20.27;54.34;100712.66;5008813;28;4141;-66
2023/01/12 01:22:24;;;;;;;;;;;;;;;20.28;54.45;100699.78;5006757;28;4178;-66
2023/01/12 01:24:50;;;;;;;;;;;;;;;20.28;54.43;100691.16;5019290;28;4026;-66
2023/01/12 01:27:16;;;;;;;;;;;;;;;20.29;54.24;100686.88;5011431;28;4090;-67
2023/01/12 01:29:43;;;;;;;;;;;;;;;20.28;54.29;100679.66;5008673;28;5421;-66
2023/01/12 01:32:09;;;;;;;;;;;;;;;20.27;54.29;100675.28;5004172;28;4127;-67
2023/01/12 01:34:36;;;;;;;;;;;;;;;20.28;54.19;100673.91;5013688;28;4475;-67
2023/01/12 01:37:02;;;;;;;;;;;;;;;20.28;54.30;100673.91;5016306;28;4378;-66
2023/01/12 01:39:28;;;;;;;;;;;;;;;20.28;54.24;100679.66;5010064;28;5147;-66
2023/01/12 01:41:55;;;;;;;;;;;;;;;20.27;54.43;100672.41;5015765;28;4145;-66
2023/01/12 01:44:30;;;;;;;;;;;;;;;20.26;54.19;100677.41;5014064;28;4023;-66
2023/01/12 01:47:00;;;;;;;;;;;;;;;20.26;54.36;100677.41;5016463;28;4251;-66
2023/01/12 01:49:30;;;;;;;;;;;;;;;20.26;54.33;100670.94;5008882;28;4076;-66
2023/01/12 01:51:59;;;;;;;;;;;;;;;20.24;54.16;100667.97;5013188;28;4238;-66
2023/01/12 01:54:26;;;;;;;;;;;;;;;20.25;54.29;100658.69;4997764;28;4505;-66
2023/01/12 01:56:53;;;;;;;;;;;;;;;20.23;54.41;100655.00;5013840;28;4049;-66
2023/01/12 01:59:20;;;;;;;;;;;;;;;20.23;54.18;100652.13;4994385;28;4355;-66
2023/01/12 02:01:47;;;;;;;;;;;;;;;20.22;54.19;100631.22;4998762;28;4155;-66
2023/01/12 02:04:13;;;;;;;;;;;;;;;20.22;54.12;100619.00;5015622;28;4254;-66
2023/01/12 02:06:39;;;;;;;;;;;;;;;20.21;54.53;100626.88;5013761;28;4014;-66
2023/01/12 02:09:13;;;;;;;;;;;;;;;20.21;54.31;100623.28;4990511;28;4217;-68
2023/01/12 02:17:23;;;;;;;;;;;;;;;20.19;54.17;100617.44;5014210;28;4128;-66
2023/01/12 02:19:52;;;;;;;;;;;;;;;20.19;54.31;100626.06;4993379;28;4163;-66
2023/01/12 02:22:27;;;;;;;;;;;;;;;20.18;54.08;100618.81;5015864;28;4156;-67
2023/01/12 02:25:16;;;;;;;;;;;;;;;20.19;53.96;100614.56;5013169;28;4154;-66
2023/01/12 02:27:48;;;;;;;;;;;;;;;20.17;54.35;100612.34;4992122;28;4132;-67
2023/01/12 02:30:35;;;;;;;;;;;;;;;20.17;54.02;100602.97;4996561;28;5279;-67
2023/01/12 02:33:02;;;;;;;;;;;;;;;20.15;54.04;100620.88;4988445;28;4101;-67
2023/01/12 02:35:34;;;;;;;;;;;;;;;20.16;54.01;100607.22;5018571;28;3989;-65
2023/01/12 02:38:19;;;;;;;;;;;;;;;20.14;54.09;100607.16;4999296;28;4114;-66
2023/01/12 02:40:58;;;;;;;;;;;;;;;20.13;54.09;100602.78;4998864;28;3921;-66
2023/01/12 02:43:27;;;;;;;;;;;;;;;20.12;54.12;100598.44;5016065;28;4262;-66
2023/01/12 02:46:13;;;;;;;;;;;;;;;20.12;54.08;100592.69;4993109;28;4220;-66
2023/01/12 02:48:42;;;;;;;;;;;;;;;20.09;54.12;100594.75;5011157;28;4230;-66
2023/01/12 02:51:10;;;;;;;;;;;;;;;20.08;54.05;100593.97;4995460;28;4206;-66
2023/01/12 02:53:42;;;;;;;;;;;;;;;20.11;53.93;100588.31;4995040;28;4137;-66
2023/01/12 02:56:08;;;;;;;;;;;;;;;20.09;53.73;100583.97;5003164;28;4525;-66
2023/01/12 02:58:37;;;;;;;;;;;;;;;20.09;53.66;100581.09;4991654;28;4029;-66
2023/01/12 03:01:04;;;;;;;;;;;;;;;20.08;53.79;100591.13;4997500;28;4073;-66
2023/01/12 03:03:30;;;;;;;;;;;;;;;20.07;53.73;100592.53;4995286;28;4159;-66
2023/01/12 03:05:56;;;;;;;;;;;;;;;20.07;53.68;100592.53;5012936;28;4023;-66
2023/01/12 03:08:24;;;;;;;;;;;;;;;20.06;53.85;100585.28;5015539;28;4111;-66
2023/01/12 03:11:00;;;;;;;;;;;;;;;20.07;53.51;100575.28;5015633;28;4238;-66
2023/01/12 03:13:27;;;;;;;;;;;;;;;20.06;53.64;100579.53;5009244;28;4182;-66
2023/01/12 03:15:54;;;;;;;;;;;;;;;20.06;53.44;100576.66;4983716;28;4205;-66
2023/01/12 03:18:27;;;;;;;;;;;;;;;20.06;53.55;100573.78;5016876;28;4940;-66
2023/01/12 03:20:55;;;;;;;;;;;;;;;20.05;53.55;100574.44;5019470;28;4079;-66
2023/01/12 03:23:32;;;;;;;;;;;;;;;20.04;53.68;100581.56;5010075;28;4145;-66
2023/01/12 03:25:59;;;;;;;;;;;;;;;20.04;53.49;100570.84;4999870;28;4184;-66
2023/01/12 03:28:27;;;;;;;;;;;;;;;20.04;53.53;100579.47;4988813;28;5502;-66
2023/01/12 03:30:55;;;;;;;;;;;;;;;20.03;53.48;100575.09;4987412;28;4135;-66
2023/01/12 03:33:21;;;;;;;;;;;;;;;20.03;53.57;100575.09;4989110;28;4039;-67
2023/01/12 03:35:50;;;;;;;;;;;;;;;20.03;53.36;100574.34;5004555;28;4102;-68
2023/01/12 03:38:23;;;;;;;;;;;;;;;20.00;53.75;100579.28;4986740;28;4150;-66
2023/01/12 03:40:52;;;;;;;;;;;;;;;20.00;53.58;100570.66;5000153;28;4224;-66
2023/01/12 03:43:30;;;;;;;;;;;;;;;20.00;53.46;100567.78;4997801;28;4124;-67
2023/01/12 03:45:57;;;;;;;;;;;;;;;20.01;53.39;100560.63;4989609;28;4105;-66
2023/01/12 03:48:35;;;;;;;;;;;;;;;20.01;53.60;100563.50;5015298;28;4188;-66
2023/01/12 03:51:21;;;;;;;;;;;;;;;20.02;53.60;100567.13;4993181;28;3951;-66
2023/01/12 03:53:48;;;;;;;;;;;;;;;20.03;53.71;100563.59;4984638;28;4128;-67
2023/01/12 03:56:15;;;;;;;;;;;;;;;20.05;53.72;100560.81;5000280;28;4142;-67
2023/01/12 03:58:41;;;;;;;;;;;;;;;20.06;53.55;100558.66;4990508;28;4211;-66
2023/01/12 04:01:08;;;;;;;;;;;;;;;20.09;53.64;100572.50;4984619;28;5274;-67
2023/01/12 04:03:34;;;;;;;;;;;;;;;20.11;53.70;100559.59;4996389;28;4572;-66
2023/01/12 04:06:01;;;;;;;;;;;;;;;20.12;53.72;100546.72;4994267;28;4099;-66
2023/01/12 04:08:27;;;;;;;;;;;;;;;20.12;53.97;100552.44;4995009;28;4195;-66
2023/01/12 04:10:55;;;;;;;;;;;;;;;20.12;53.74;100543.84;4992244;28;4159;-66
2023/01/12 04:13:21;;;;;;;;;;;;;;;20.13;53.96;100537.41;4995073;28;4492;-66
2023/01/12 04:15:47;;;;;;;;;;;;;;;20.13;54.02;100548.16;4992342;28;4118;-66
2023/01/12 04:18:14;;;;;;;;;;;;;;;20.12;53.86;100538.09;4993698;28;4260;-66
2023/01/12 04:20:40;;;;;;;;;;;;;;;20.13;53.75;100542.44;4999060;28;4156;-66
2023/01/12 04:23:06;;;;;;;;;;;;;;;20.14;53.87;100538.16;4998110;28;4114;-66
2023/01/12 04:25:33;;;;;;;;;;;;;;;20.13;53.89;100530.94;4988994;28;5196;-66
2023/01/12 04:28:00;;;;;;;;;;;;;;;20.13;53.76;100530.94;4996297;28;4262;-66
2023/01/12 04:30:27;;;;;;;;;;;;;;;20.13;53.94;100522.31;4994546;28;4288;-66
2023/01/12 04:32:54;;;;;;;;;;;;;;;20.13;54.02;100519.44;4995162;28;4371;-66
2023/01/12 04:35:21;;;;;;;;;;;;;;;20.12;54.10;100518.69;4992205;28;4031;-66
2023/01/12 04:37:47;;;;;;;;;;;;;;;20.13;53.96;100519.44;4991148;28;4088;-66
2023/01/12 04:40:13;;;;;;;;;;;;;;;20.13;53.92;100525.91;4999697;28;4139;-66
2023/01/12 04:43:05;;;;;;;;;;;;;;;20.15;54.10;100519.53;4994007;28;4165;-66
2023/01/12 04:45:34;;;;;;;;;;;;;;;20.16;53.97;100523.84;4995029;28;5096;-67
2023/01/12 04:48:01;;;;;;;;;;;;;;;20.17;54.03;100513.84;4997066;28;4015;-66
2023/01/12 04:50:28;;;;;;;;;;;;;;;20.17;53.98;100519.59;4996547;28;4530;-66
2023/01/12 04:52:54;;;;;;;;;;;;;;;20.17;54.01;100510.97;5011565;28;3895;-66
2023/01/12 04:55:20;;;;;;;;;;;;;;;20.18;53.98;100515.31;5013905;28;4180;-66
2023/01/12 04:57:47;;;;;;;;;;;;;;;20.18;54.04;100523.94;5016495;28;4405;-66
2023/01/12 05:00:13;;;;;;;;;;;;;;;20.16;53.99;100513.13;5013825;28;4214;-66
2023/01/12 05:02:39;;;;;;;;;;;;;;;20.17;53.96;100505.97;5007169;28;4231;-66
2023/01/12 05:05:07;;;;;;;;;;;;;;;20.17;53.92;100508.09;5015176;28;3987;-67
2023/01/12 05:07:33;;;;;;;;;;;;;;;20.16;54.03;100504.50;5013122;28;4160;-66
2023/01/12 05:12:45;;;;;;;;;;;;;;;20.16;54.04;100495.09;5012400;28;5539;-66
2023/01/12 05:15:11;;;;;;;;;;;;;;;20.15;54.11;100488.63;5014217;28;4162;-67
2023/01/12 05:17:38;;;;;;;;;;;;;;;20.14;54.04;100498.66;5009948;28;4210;-67
2023/01/12 05:20:05;;;;;;;;;;;;;;;20.14;54.19;100492.19;5010987;28;4480;-66
2023/01/12 05:22:31;;;;;;;;;;;;;;;20.14;54.10;100492.19;5010968;28;4143;-66
2023/01/12 05:24:57;;;;;;;;;;;;;;;20.14;53.86;100492.19;5016594;28;4164;-66
2023/01/12 05:27:24;;;;;;;;;;;;;;;20.15;54.00;100490.78;5004375;28;4104;-67
2023/01/12 05:29:51;;;;;;;;;;;;;;;20.15;53.97;100499.41;5008299;28;4168;-67
2023/01/12 05:32:18;;;;;;;;;;;;;;;20.15;53.92;100485.75;5009502;28;4263;-67
2023/01/12 05:34:44;;;;;;;;;;;;;;;20.17;53.85;100499.47;5006184;28;3968;-66
2023/01/12 05:37:10;;;;;;;;;;;;;;;20.17;54.06;100490.84;5012315;28;4177;-66
2023/01/12 05:39:37;;;;;;;;;;;;;;;20.18;54.07;100489.44;4997485;28;3975;-67
2023/01/12 05:44:48;;;;;;;;;;;;;;;20.27;54.25;100500.66;5009463;28;4597;-65
2023/01/12 05:47:14;;;;;;;;;;;;;;;20.28;54.07;100490.63;5000519;28;4169;-65
2023/01/12 05:49:41;;;;;;;;;;;;;;;20.27;54.19;100488.38;5014025;28;4355;-66
2023/01/12 05:52:07;;;;;;;;;;;;;;;20.24;54.25;100489.72;5017897;28;4025;-66
2023/01/12 05:54:34;;;;;;;;;;;;;;;20.21;54.20;100497.50;5016719;28;4147;-65
2023/01/12 05:57:00;;;;;;;;;;;;;;;20.22;54.30;100492.50;5015915;28;4577;-67
2023/01/12 05:59:26;;;;;;;;;;;;;;;20.19;54.18;100496.69;5017398;28;4202;-67
2023/01/12 06:01:53;;;;;;;;;;;;;;;20.20;54.10;100487.41;5017210;28;4132;-66
2023/01/12 06:04:19;;;;;;;;;;;;;;;20.20;54.24;100478.03;5017585;28;4138;-66
2023/01/12 06:06:47;;;;;;;;;;;;;;;20.21;53.99;100485.28;5022819;28;4065;-66
2023/01/12 06:09:13;;;;;;;;;;;;;;;20.21;54.13;100485.28;5023103;28;4071;-66
2023/01/12 06:14:25;;;;;;;;;;;;;;;20.19;53.99;100488.81;5012628;28;5303;-65
2023/01/12 06:16:52;;;;;;;;;;;;;;;20.18;54.06;100486.56;5020098;28;4183;-65
2023/01/12 06:19:18;;;;;;;;;;;;;;;20.18;54.08;100477.94;5016924;28;4182;-66
2023/01/12 06:21:44;;;;;;;;;;;;;;;20.17;54.07;100479.34;5018246;28;5365;-66
2023/01/12 06:24:11;;;;;;;;;;;;;;;20.17;54.04;100482.97;5020029;28;4066;-67
2023/01/12 06:26:38;;;;;;;;;;;;;;;20.17;54.10;100480.09;5017271;28;4195;-66
2023/01/12 06:29:05;;;;;;;;;;;;;;;20.18;53.99;100472.19;5017716;28;3977;-66
2023/01/12 06:31:32;;;;;;;;;;;;;;;20.18;53.99;100475.06;5016990;28;4026;-66
2023/01/12 06:33:58;;;;;;;;;;;;;;;20.20;53.87;100460.78;5011372;28;4224;-65
2023/01/12 06:36:25;;;;;;;;;;;;;;;20.20;53.86;100444.31;5017511;28;4006;-66
2023/01/12 06:38:51;;;;;;;;;;;;;;;20.19;53.96;100444.94;5017517;28;3979;-66
2023/01/12 06:44:03;;;;;;;;;;;;;;;20.20;53.85;100449.28;5013104;28;4124;-66
2023/01/12 06:46:30;;;;;;;;;;;;;;;20.19;53.96;100442.06;5016148;28;4023;-66
2023/01/12 06:48:56;;;;;;;;;;;;;;;20.19;53.81;100447.81;5022802;28;4168;-66
2023/01/12 06:51:23;;;;;;;;;;;;;;;20.19;53.83;100442.06;5019959;28;4149;-67
2023/01/12 06:53:49;;;;;;;;;;;;;;;20.18;53.91;100447.09;5016414;28;4001;-66
2023/01/12 06:56:16;;;;;;;;;;;;;;;20.18;53.95;100440.56;5012465;28;5331;-67
2023/01/12 06:58:42;;;;;;;;;;;;;;;20.18;53.71;100440.56;5021386;28;4086;-68
2023/01/12 07:01:08;;;;;;;;;;;;;;;20.20;53.56;100434.91;5018692;28;4152;-68
2023/01/12 07:03:35;;;;;;;;;;;;;;;20.22;53.80;100435.72;5018316;28;4337;-68
2023/01/12 07:06:01;;;;;;;;;;;;;;;20.22;53.83;100441.47;5001428;28;4096;-68
2023/01/12 07:08:27;;;;;;;;;;;;;;;20.22;54.00;100429.25;5015771;28;4362;-69
2023/01/12 07:10:54;;;;;;;;;;;;;;;20.22;54.27;100427.09;5016866;28;4106;-68
2023/01/12 07:13:20;;;;;;;;;;;;;;;20.24;54.37;100437.97;5013459;28;4502;-67
2023/01/12 07:15:47;;;;;;;;;;;;;;;20.26;54.46;100432.28;5020688;28;4244;-68
2023/01/12 07:18:13;;;;;;;;;;;;;;;20.27;54.14;100425.13;5017609;28;4158;-69
2023/01/12 07:20:40;;;;;;;;;;;;;;;20.29;54.33;100428.09;5014244;28;4253;-69
2023/01/12 07:23:06;;;;;;;;;;;;;;;20.28;54.69;100426.63;5016564;28;4148;-68
2023/01/12 07:25:32;;;;;;;;;;;;;;;20.26;54.49;100415.78;5021612;28;4143;-69
2023/01/12 07:27:59;;;;;;;;;;;;;;;20.27;54.80;100419.38;5017576;28;4237;-68
2023/01/12 07:30:25;;;;;;;;;;;;;;;20.26;54.72;100410.03;5013859;28;5433;-68
2023/01/12 07:32:52;;;;;;;;;;;;;;;20.25;54.87;100411.44;5012781;28;4102;-75
2023/01/12 07:35:18;;;;;;;;;;;;;;;20.24;54.82;100398.44;4999436;28;5168;-68
2023/01/12 07:37:52;;;;;;;;;;;;;;;20.24;55.01;100403.47;5019506;28;4990;-66
2023/01/12 07:40:19;;;;;;;;;;;;;;;20.18;54.95;100401.09;5013135;28;4481;-68
2023/01/12 07:42:45;;;;;;;;;;;;;;;20.17;54.87;100390.97;5014280;28;4108;-69
2023/01/12 07:45:11;;;;;;;;;;;;;;;20.05;54.64;100388.34;5005378;28;4142;-70
2023/01/12 07:47:38;;;;;;;;;;;;;;;19.97;54.18;100381.53;5019573;28;4085;-69
2023/01/12 07:50:04;;;;;;;;;;;;;;;19.83;53.44;100379.56;5020729;28;5334;-69
2023/01/12 07:52:31;;;;;;;;;;;;;;;19.84;52.67;100386.06;5015062;28;4424;-69
2023/01/12 07:54:57;;;;;;;;;;;;;;;19.81;52.14;100376.63;5015572;28;4055;-69
2023/01/12 07:57:23;;;;;;;;;;;;;;;19.75;51.68;100379.25;4990497;28;4202;-69
2023/01/12 07:59:50;;;;;;;;;;;;;;;19.78;50.87;100371.44;5016765;28;4084;-69
2023/01/12 08:02:16;;;;;;;;;;;;;;;19.70;50.54;100383.34;5016261;28;5346;-69
2023/01/12 08:04:43;;;;;;;;;;;;;;;19.69;49.94;100378.25;5021027;28;4085;-69
2023/01/12 08:07:10;;;;;;;;;;;;;;;19.74;49.46;100377.75;4991563;28;4103;-70
2023/01/12 08:09:36;;;;;;;;;;;;;;;19.77;49.48;100364.22;5002007;28;4369;-68
2023/01/12 08:12:02;;;;;;;;;;;;;;;19.76;49.38;100369.22;5021146;28;4217;-70
2023/01/12 08:14:32;;;;;;;;;;;;;;;19.75;49.88;100375.63;5019079;28;4007;-69
2023/01/12 08:17:00;;;;;;;;;;;;;;;19.70;49.74;100373.97;4990725;28;4153;-69
2023/01/12 08:19:29;;;;;;;;;;;;;;;19.71;49.68;100361.09;4996565;28;4108;-69
2023/01/12 08:21:57;;;;;;;;;;;;;;;19.70;49.44;100360.38;4993065;28;4178;-69
2023/01/12 08:24:25;;;;;;;;;;;;;;;19.59;49.50;100356.31;5019008;28;4062;-69
2023/01/12 08:26:52;;;;;;;;;;;;;;;19.58;49.14;100360.56;5003055;28;3948;-68
2023/01/12 08:29:32;;;;;;;;;;;;;;;19.62;48.74;100360.72;5014073;28;4197;-69
2023/01/12 08:31:59;;;;;;;;;;;;;;;19.51;49.13;100353.09;5019161;28;4123;-69
2023/01/12 08:34:28;;;;;;;;;;;;;;;19.45;48.50;100352.84;5019280;28;4176;-69
2023/01/12 08:36:55;;;;;;;;;;;;;;;19.45;47.73;100344.22;5019346;28;4221;-68
2023/01/12 08:39:21;;;;;;;;;;;;;;;19.57;47.38;100338.97;4991628;28;4142;-67
2023/01/12 08:41:48;;;;;;;;;;;;;;;19.70;47.30;100348.13;4992258;28;3944;-67
2023/01/12 08:44:14;;;;;;;;;;;;;;;19.80;47.46;100351.41;5011250;28;4014;-66
2023/01/12 08:46:43;;;;;;;;;;;;;;;19.87;47.91;100344.53;4984481;28;4104;-66
2023/01/12 08:49:10;;;;;;;;;;;;;;;19.90;48.15;100337.44;4990074;28;4373;-66
2023/01/12 08:51:38;;;;;;;;;;;;;;;19.92;48.20;100340.41;5006094;28;4182;-69
2023/01/12 08:54:05;;;;;;;;;;;;;;;19.92;48.42;100334.66;5011347;28;4007;-67
2023/01/12 08:56:32;;;;;;;;;;;;;;;19.91;48.51;100333.19;5014022;28;5269;-69
2023/01/12 08:58:58;;;;;;;;;;;;;;;19.91;48.62;100333.19;5020013;28;4144;-68
2023/01/12 09:01:26;;;;;;;;;;;;;;;19.93;49.05;100324.66;5016157;28;4148;-68
2023/01/12 09:03:52;;;;;;;;;;;;;;;19.89;49.25;100336.00;5016737;28;4259;-68
2023/01/12 09:06:20;;;;;;;;;;;;;;;19.97;49.19;100327.66;4991228;28;5439;-68
2023/01/12 09:08:46;;;;;;;;;;;;;;;19.98;49.49;100325.56;5003951;28;4083;-68
2023/01/12 09:11:13;;;;;;;;;;;;;;;19.98;49.51;100314.06;5014432;28;4458;-68
2023/01/12 09:13:39;;;;;;;;;;;;;;;19.97;49.68;100310.44;5020869;28;4341;-68
2023/01/12 09:16:07;;;;;;;;;;;;;;;20.00;49.72;100305.53;5018173;28;4993;-68
2023/01/12 09:18:38;;;;;;;;;;;;;;;20.01;49.66;100309.88;5018381;28;4105;-68
2023/01/12 09:21:05;;;;;;;;;;;;;;;20.00;49.72;100289.00;5023797;28;4074;-68
2023/01/12 09:23:32;;;;;;;;;;;;;;;20.02;49.88;100299.84;5004165;28;4047;-69
2023/01/12 09:26:04;;;;;;;;;;;;;;;20.00;49.98;100289.00;5021645;28;4102;-69
2023/01/12 09:28:31;;;;;;;;;;;;;;;20.02;49.85;100302.69;5006013;28;4140;-68
2023/01/12 09:31:01;;;;;;;;;;;;;;;20.02;49.96;100308.44;5022562;28;5169;-69
2023/01/12 09:33:27;;;;;;;;;;;;;;;19.75;49.51;100295.19;4995476;28;4147;-66
2023/01/12 09:35:58;;;;;;;;;;;;;;;19.83;49.99;100298.38;5017145;28;5310;-68
2023/01/12 09:38:24;;;;;;;;;;;;;;;19.91;48.99;100292.97;5017917;28;4345;-67
2023/01/12 09:40:50;;;;;;;;;;;;;;;19.95;49.23;100286.63;5019578;28;4082;-67
2023/01/12 09:48:47;;;;;;;;;;;;;;;20.04;49.48;100271.16;5000335;28;4065;-66
2023/01/12 09:51:15;;;;;;;;;;;;;;;20.04;49.65;100260.44;5017766;28;4113;-67
2023/01/12 09:53:42;;;;;;;;;;;;;;;20.07;49.86;100253.34;4999661;28;4245;-66
2023/01/12 09:56:14;;;;;;;;;;;;;;;20.08;49.83;100266.31;5022758;28;4168;-66
2023/01/12 09:58:52;;;;;;;;;;;;;;;20.08;49.84;100254.81;5004227;28;4242;-66
2023/01/12 10:01:18;;;;;;;;;;;;;;;20.09;50.03;100250.56;5019603;28;4042;-67
2023/01/12 10:03:54;;;;;;;;;;;;;;;20.09;50.09;100252.69;5019234;28;4028;-66
2023/01/12 10:06:20;;;;;;;;;;;;;;;20.09;50.10;100249.84;5002130;28;4131;-66
2023/01/12 10:08:48;;;;;;;;;;;;;;;20.10;50.08;100251.28;5022956;28;3944;-66
2023/01/12 10:11:33;;;;;;;;;;;;;;;20.11;50.21;100252.03;4995340;28;4010;-66
2023/01/12 10:14:11;;;;;;;;;;;;;;;20.11;50.26;100240.53;5023749;28;4148;-66
2023/01/12 10:16:46;;;;;;;;;;;;;;;20.10;50.32;100251.28;5021237;28;4081;-66
2023/01/12 10:19:17;;;;;;;;;;;;;;;20.09;50.30;100233.31;5003004;28;4074;-66
2023/01/12 10:21:43;;;;;;;;;;;;;;;20.11;50.35;100243.41;5019788;28;4266;-66
2023/01/12 10:24:12;;;;;;;;;;;;;;;20.11;50.31;100234.78;5005865;28;5124;-66
2023/01/12 10:26:42;;;;;;;;;;;;;;;20.11;50.31;100238.38;4994465;28;4070;-66
2023/01/12 10:29:09;;;;;;;;;;;;;;;20.11;50.39;100249.16;4999196;28;4223;-66
2023/01/12 10:31:35;;;;;;;;;;;;;;;20.09;50.42;100239.06;5012659;28;4144;-68
2023/01/12 10:34:06;;;;;;;;;;;;;;;20.04;50.72;100220.19;5011795;28;4400;-69
2023/01/12 10:36:33;;;;;;;;;;;;;;;20.18;50.52;100216.34;4992364;28;4271;-70
2023/01/12 10:39:02;;;;;;;;;;;;;;;20.08;50.65;100223.19;4988215;28;4928;-70
2023/01/12 10:41:29;;;;;;;;;;;;;;;20.09;50.33;100221.81;5012871;28;4229;-70
2023/01/12 10:43:55;;;;;;;;;;;;;;;20.08;50.39;100220.34;5017869;28;4106;-69
2023/01/12 10:46:22;;;;;;;;;;;;;;;20.08;50.61;100220.34;5012612;28;4128;-69
2023/01/12 10:48:49;;;;;;;;;;;;;;;20.08;50.49;100197.34;5020031;28;4139;-69
2023/01/12 10:51:19;;;;;;;;;;;;;;;20.14;50.65;100211.22;5009222;28;4127;-70
2023/01/12 10:53:46;;;;;;;;;;;;;;;20.23;50.38;100201.47;5013261;28;5331;-69
2023/01/12 10:56:32;;;;;;;;;;;;;;;20.22;50.39;100199.25;4993367;28;4120;-68
2023/01/12 10:59:00;;;;;;;;;;;;;;;20.21;50.64;100180.56;5018244;28;4216;-68
2023/01/12 11:01:40;;;;;;;;;;;;;;;20.20;50.59;100174.06;5019565;28;4108;-68
2023/01/12 11:04:09;;;;;;;;;;;;;;;20.21;50.64;100169.78;4982269;28;5314;-68
2023/01/12 11:06:37;;;;;;;;;;;;;;;20.22;50.59;100164.75;4999675;28;4079;-68
2023/01/12 11:09:16;;;;;;;;;;;;;;;20.23;50.72;100160.50;4997256;28;4531;-69
2023/01/12 11:11:42;;;;;;;;;;;;;;;20.23;50.63;100157.63;5015970;28;4505;-68
2023/01/12 11:14:09;;;;;;;;;;;;;;;20.23;50.75;100154.75;5008034;28;4244;-65
2023/01/12 11:16:40;;;;;;;;;;;;;;;20.25;50.70;100157.72;4995124;28;6682;-66
2023/01/12 11:19:06;;;;;;;;;;;;;;;20.24;50.61;100161.97;4987541;28;4308;-66
2023/01/12 11:21:33;;;;;;;;;;;;;;;20.28;50.61;100151.34;5012322;28;5322;-68
2023/01/12 11:24:09;;;;;;;;;;;;;;;20.59;51.08;100146.69;4984076;28;4194;-67
2023/01/12 11:26:35;;;;;;;;;;;;;;;20.73;50.99;100152.19;4999695;28;4236;-63
2023/01/12 11:29:13;;;;;;;;;;;;;;;20.78;51.04;100148.03;5021536;28;6417;-63
2023/01/12 11:31:39;;;;;;;;;;;;;;;20.93;50.82;100140.59;4991552;28;4285;-63
2023/01/12 11:34:09;;;;;;;;;;;;;;;21.17;51.26;100145.69;4990684;28;4162;-66
2023/01/12 11:36:37;;;;;;;;;;;;;;;21.26;50.91;100142.38;5011172;28;4394;-66
2023/01/12 11:39:04;;;;;;;;;;;;;;;21.21;50.74;100129.28;5018071;28;4486;-67
2023/01/12 11:41:38;;;;;;;;;;;;;;;21.06;51.61;100136.00;5017698;28;4831;-65
2023/01/12 11:44:15;;;;;;;;;;;;;;;21.06;52.00;100130.22;4992982;28;4286;-66
2023/01/12 11:46:45;;;;;;;;;;;;;;;21.08;52.27;100133.16;5013868;28;4099;-66
2023/01/12 11:49:16;;;;;;;;;;;;;;;21.17;52.37;100123.38;4993694;28;4657;-67
2023/01/12 11:51:46;;;;;;;;;;;;;;;21.09;52.46;100126.00;4989390;28;5258;-70
2023/01/12 11:54:15;;;;;;;;;;;;;;;21.07;53.45;100125.94;5016160;28;4097;-73
2023/01/12 11:56:49;;;;;;;;;;;;;;;21.14;53.60;100124.72;5001699;28;5384;-71
2023/01/12 11:59:31;;;;;;;;;;;;;;;21.18;53.38;100130.59;5012363;28;4783;-70
2023/01/12 12:02:04;;;;;;;;;;;;;;;21.19;53.28;100123.44;5017521;28;4558;-70
2023/01/12 12:04:50;;;;;;;;;;;;;;;21.06;53.83;100136.00;5012124;28;5485;-66
2023/01/12 12:07:19;;;;;;;;;;;;;;;20.97;54.06;100111.22;5019186;28;4150;-66
2023/01/12 12:09:48;;;;;;;;;;;;;;;21.04;54.00;100110.75;4994699;28;4556;-71
2023/01/12 12:12:21;;;;;;;;;;;;;;;21.18;53.66;100113.31;5008694;28;4195;-70
2023/01/12 12:15:08;;;;;;;;;;;;;;;21.17;53.41;100106.13;5017201;28;4161;-70
2023/01/12 12:17:43;;;;;;;;;;;;;;;21.13;53.40;100117.50;5014915;28;4162;-68
2023/01/12 12:20:15;;;;;;;;;;;;;;;21.05;53.38;100102.84;5019029;28;4029;-69
2023/01/12 12:23:00;;;;;;;;;;;;;;;21.21;52.95;100114.88;5011877;28;4090;-71
2023/01/12 12:25:32;;;;;;;;;;;;;;;21.27;52.42;100115.06;5017044;28;3971;-70
2023/01/12 12:28:19;;;;;;;;;;;;;;;21.20;52.63;100110.50;4993777;28;4201;-70
2023/01/12 12:30:58;;;;;;;;;;;;;;;21.16;53.11;100106.78;4985366;28;4154;-68
2023/01/12 12:33:49;;;;;;;;;;;;;;;21.03;53.19;100097.03;5014399;28;5377;-71
2023/01/12 12:36:24;;;;;;;;;;;;;;;21.03;52.99;100100.66;5012526;28;4340;-70
2023/01/12 12:39:09;;;;;;;;;;;;;;;21.16;52.62;100112.53;5024034;28;3928;-75
2023/01/12 12:47:39;;;;;;;;;;;;;;;20.78;53.17;100102.00;5014180;28;4224;-71
2023/01/12 12:50:19;;;;;;;;;;;;;;;20.89;53.06;100105.94;4985183;28;5075;-70
2023/01/12 12:52:48;;;;;;;;;;;;;;;20.82;52.62;100102.16;5006128;28;4753;-74
2023/01/12 12:55:15;;;;;;;;;;;;;;;20.97;52.54;100099.72;4987312;28;4618;-77
2023/01/12 12:57:57;;;;;;;;;;;;;;;21.08;52.69;100098.63;5015560;28;4467;-75
2023/01/12 13:00:27;;;;;;;;;;;;;;;21.06;52.21;100104.31;5011422;28;4159;-75
2023/01/12 13:02:54;;;;;;;;;;;;;;;21.15;51.94;100100.28;5010520;28;4562;-73
2023/01/12 13:05:39;;;;;;;;;;;;;;;21.10;51.68;100107.34;5020714;28;5052;-73
2023/01/12 13:08:22;;;;;;;;;;;;;;;21.10;51.73;100104.47;5007291;28;4140;-74
2023/01/12 13:10:49;;;;;;;;;;;;;;;21.14;51.68;100107.44;4995867;28;4246;-75
2023/01/12 13:13:21;;;;;;;;;;;;;;;21.11;51.64;100103.03;5015604;28;5285;-73
2023/01/12 13:15:48;;;;;;;;;;;;;;;21.09;51.48;100100.09;4995841;28;4417;-71
2023/01/12 13:18:44;;;;;;;;;;;;;;;21.07;51.87;100103.66;5016415;28;4256;-80
2023/01/12 13:21:26;;;;;;;;;;;;;;;21.04;51.82;100086.97;4936221;28;4593;-79
2023/01/12 13:23:53;;;;;;;;;;;;;;;21.05;51.64;100094.19;4992247;28;4445;-79
2023/01/12 13:26:31;;;;;;;;;;;;;;;21.06;51.32;100096.41;4985174;28;4629;-79
2023/01/12 13:29:16;;;;;;;;;;;;;;;21.08;51.29;100092.88;5015033;28;4272;-78
2023/01/12 13:31:42;;;;;;;;;;;;;;;20.92;51.64;100085.19;5012225;28;4115;-76